sensor_id;sensor_type;location;lat;lon;timestamp;P1;durP1;ratioP1;P2;durP2;ratioP2
34471;SDS011;20710;49.976;19.836;2022-09-09T02:24:47;8.88;;;6.55;;
34471;SDS011;20710;49.976;19.836;2022-09-09T02:30:55;9.28;;;6.30;;
34471;SDS011;20710;49.976;19.836;2022-09-09T02:37:01;11.65;;;7.05;;
34471;SDS011;20710;49.976;19.836;2022-09-09T02:43:07;8.20;;;6.05;;
34471;SDS011;20710;49.976;19.836;2022-09-09T02:49:10;11.25;;;6.20;;
34471;SDS011;20710;49.976;19.836;2022-09-09T02:55:25;9.93;;;6.53;;
34471;SDS011;20710;49.976;19.836;2022-09-09T03:01:51;8.58;;;6.28;;
34471;SDS011;20710;49.976;19.836;2022-09-09T03:07:54;9.25;;;6.25;;
34471;SDS011;20710;49.976;19.836;2022-09-09T03:13:57;8.93;;;6.62;;
34471;SDS011;20710;49.976;19.836;2022-09-09T03:19:59;7.97;;;5.70;;
34471;SDS011;20710;49.976;19.836;2022-09-09T03:26:04;8.20;;;5.75;;
34471;SDS011;20710;49.976;19.836;2022-09-09T03:32:08;10.78;;;8.00;;
34471;SDS011;20710;49.976;19.836;2022-09-09T03:38:13;10.50;;;8.70;;
34471;SDS011;20710;49.976;19.836;2022-09-09T03:44:18;8.93;;;7.40;;
34471;SDS011;20710;49.976;19.836;2022-09-09T03:50:21;10.75;;;7.03;;
34471;SDS011;20710;49.976;19.836;2022-09-09T03:56:22;10.48;;;7.62;;
34471;SDS011;20710;49.976;19.836;2022-09-09T04:02:24;15.03;;;7.90;;
34471;SDS011;20710;49.976;19.836;2022-09-09T04:08:25;9.28;;;7.17;;
34471;SDS011;20710;49.976;19.836;2022-09-09T04:14:28;12.63;;;6.85;;
34471;SDS011;20710;49.976;19.836;2022-09-09T04:20:30;10.10;;;6.83;;
34471;SDS011;20710;49.976;19.836;2022-09-09T04:26:32;10.23;;;6.78;;
34471;SDS011;20710;49.976;19.836;2022-09-09T04:32:34;12.68;;;7.25;;
34471;SDS011;20710;49.976;19.836;2022-09-09T04:38:39;10.70;;;7.70;;
34471;SDS011;20710;49.976;19.836;2022-09-09T04:44:40;9.03;;;6.83;;
34471;SDS011;20710;49.976;19.836;2022-09-09T04:50:43;15.93;;;7.37;;
34471;SDS011;20710;49.976;19.836;2022-09-09T04:56:46;12.78;;;8.03;;
34471;SDS011;20710;49.976;19.836;2022-09-09T05:02:47;11.75;;;8.28;;
34471;SDS011;20710;49.976;19.836;2022-09-09T05:08:50;13.48;;;8.13;;
34471;SDS011;20710;49.976;19.836;2022-09-09T05:14:53;12.85;;;7.97;;
34471;SDS011;20710;49.976;19.836;2022-09-09T05:20:59;11.28;;;7.42;;
34471;SDS011;20710;49.976;19.836;2022-09-09T05:27:02;10.53;;;6.60;;
34471;SDS011;20710;49.976;19.836;2022-09-09T05:33:03;7.80;;;6.62;;
34471;SDS011;20710;49.976;19.836;2022-09-09T05:39:07;10.95;;;6.80;;
34471;SDS011;20710;49.976;19.836;2022-09-09T05:45:09;14.35;;;6.80;;
34471;SDS011;20710;49.976;19.836;2022-09-09T05:51:13;7.75;;;5.58;;
34471;SDS011;20710;49.976;19.836;2022-09-09T05:57:20;8.55;;;5.80;;
34471;SDS011;20710;49.976;19.836;2022-09-09T06:03:32;13.75;;;8.63;;
34471;SDS011;20710;49.976;19.836;2022-09-09T06:09:36;7.78;;;6.65;;
34471;SDS011;20710;49.976;19.836;2022-09-09T06:15:37;11.80;;;7.72;;
34471;SDS011;20710;49.976;19.836;2022-09-09T06:21:40;11.20;;;8.28;;
34471;SDS011;20710;49.976;19.836;2022-09-09T06:27:48;12.43;;;8.60;;
34471;SDS011;20710;49.976;19.836;2022-09-09T06:33:52;11.97;;;8.33;;
34471;SDS011;20710;49.976;19.836;2022-09-09T06:39:57;13.13;;;8.63;;
34471;SDS011;20710;49.976;19.836;2022-09-09T06:46:20;11.85;;;7.92;;
34471;SDS011;20710;49.976;19.836;2022-09-09T06:52:14;14.68;;;6.30;;
34471;SDS011;20710;49.976;19.836;2022-09-09T06:58:16;9.33;;;5.30;;
34471;SDS011;20710;49.976;19.836;2022-09-09T07:04:19;6.25;;;4.53;;
34471;SDS011;20710;49.976;19.836;2022-09-09T07:10:21;6.55;;;3.70;;
34471;SDS011;20710;49.976;19.836;2022-09-09T07:16:22;8.13;;;4.28;;
34471;SDS011;20710;49.976;19.836;2022-09-09T07:22:27;4.42;;;3.75;;
34471;SDS011;20710;49.976;19.836;2022-09-09T07:28:30;7.55;;;3.33;;
34471;SDS011;20710;49.976;19.836;2022-09-09T07:34:32;4.33;;;3.25;;
34471;SDS011;20710;49.976;19.836;2022-09-09T07:40:33;6.28;;;3.35;;
34471;SDS011;20710;49.976;19.836;2022-09-09T07:46:38;3.00;;;2.50;;
34471;SDS011;20710;49.976;19.836;2022-09-09T07:52:42;3.05;;;2.72;;
34471;SDS011;20710;49.976;19.836;2022-09-09T07:58:47;4.72;;;2.70;;
34471;SDS011;20710;49.976;19.836;2022-09-09T08:04:50;4.33;;;2.60;;
34471;SDS011;20710;49.976;19.836;2022-09-09T08:10:53;2.75;;;2.25;;
34471;SDS011;20710;49.976;19.836;2022-09-09T08:16:56;4.62;;;2.35;;
34471;SDS011;20710;49.976;19.836;2022-09-09T08:22:59;1.92;;;1.67;;
34471;SDS011;20710;49.976;19.836;2022-09-09T08:29:02;2.98;;;1.90;;
34471;SDS011;20710;49.976;19.836;2022-09-09T08:35:08;2.42;;;1.67;;
34471;SDS011;20710;49.976;19.836;2022-09-09T08:47:48;5.95;;;1.60;;
34471;SDS011;20710;49.976;19.836;2022-09-09T08:53:57;1.75;;;1.40;;
34471;SDS011;20710;49.976;19.836;2022-09-09T09:00:04;2.42;;;1.42;;
34471;SDS011;20710;49.976;19.836;2022-09-09T09:12:19;5.15;;;2.65;;
34471;SDS011;20710;49.976;19.836;2022-09-09T09:18:30;4.10;;;1.42;;
34471;SDS011;20710;49.976;19.836;2022-09-09T09:25:17;2.17;;;1.10;;
34471;SDS011;20710;49.976;19.836;2022-09-09T09:31:09;1.57;;;1.30;;
34471;SDS011;20710;49.976;19.836;2022-09-09T09:37:20;2.45;;;1.27;;
34471;SDS011;20710;49.976;19.836;2022-09-09T09:43:34;3.87;;;1.70;;
34471;SDS011;20710;49.976;19.836;2022-09-09T09:56:10;1.67;;;1.22;;
34471;SDS011;20710;49.976;19.836;2022-09-09T10:02:17;3.15;;;1.20;;
34471;SDS011;20710;49.976;19.836;2022-09-09T10:08:27;3.40;;;1.50;;
34471;SDS011;20710;49.976;19.836;2022-09-09T10:14:40;2.90;;;1.10;;
34471;SDS011;20710;49.976;19.836;2022-09-09T10:27:30;1.82;;;1.02;;
34471;SDS011;20710;49.976;19.836;2022-09-09T10:34:19;1.00;;;0.70;;
34471;SDS011;20710;49.976;19.836;2022-09-09T11:00:51;1.40;;;0.85;;
34471;SDS011;20710;49.976;19.836;2022-09-09T11:07:02;1.75;;;1.02;;
34471;SDS011;20710;49.976;19.836;2022-09-09T11:13:26;1.92;;;1.20;;
34471;SDS011;20710;49.976;19.836;2022-09-09T11:20:04;1.75;;;0.90;;
34471;SDS011;20710;49.976;19.836;2022-09-09T11:26:12;2.15;;;0.80;;
34471;SDS011;20710;49.976;19.836;2022-09-09T11:39:50;1.90;;;1.07;;
34471;SDS011;20710;49.976;19.836;2022-09-09T11:46:07;1.87;;;0.90;;
34471;SDS011;20710;49.976;19.836;2022-09-09T11:52:20;1.35;;;0.93;;
34471;SDS011;20710;49.976;19.836;2022-09-09T11:59:05;1.42;;;0.72;;
34471;SDS011;20710;49.976;19.836;2022-09-09T12:05:10;1.80;;;0.85;;
34471;SDS011;20710;49.976;19.836;2022-09-09T12:11:29;5.50;;;1.12;;
34471;SDS011;20710;49.976;19.836;2022-09-09T12:17:36;1.25;;;0.80;;
34471;SDS011;20710;49.976;19.836;2022-09-09T12:30:29;1.62;;;1.00;;
34471;SDS011;20710;49.976;19.836;2022-09-09T12:36:46;1.62;;;0.65;;
34471;SDS011;20710;49.976;19.836;2022-09-09T12:43:01;1.15;;;0.65;;
34471;SDS011;20710;49.976;19.836;2022-09-09T13:02:22;0.88;;;0.78;;
34471;SDS011;20710;49.976;19.836;2022-09-09T13:08:30;1.10;;;0.70;;
34471;SDS011;20710;49.976;19.836;2022-09-09T13:15:19;1.85;;;0.50;;
34471;SDS011;20710;49.976;19.836;2022-09-09T13:28:35;3.62;;;0.88;;
34471;SDS011;20710;49.976;19.836;2022-09-09T13:34:30;0.65;;;0.60;;
34471;SDS011;20710;49.976;19.836;2022-09-09T13:41:04;2.00;;;0.60;;
34471;SDS011;20710;49.976;19.836;2022-09-09T14:00:11;2.40;;;0.65;;
34471;SDS011;20710;49.976;19.836;2022-09-09T14:06:20;1.02;;;0.68;;
34471;SDS011;20710;49.976;19.836;2022-09-09T14:12:30;1.60;;;0.90;;
34471;SDS011;20710;49.976;19.836;2022-09-09T14:18:34;0.65;;;0.65;;
34471;SDS011;20710;49.976;19.836;2022-09-09T14:24:35;2.80;;;1.45;;
34471;SDS011;20710;49.976;19.836;2022-09-09T14:37:26;1.65;;;0.95;;
34471;SDS011;20710;49.976;19.836;2022-09-09T14:49:41;1.30;;;1.02;;
34471;SDS011;20710;49.976;19.836;2022-09-09T15:02:25;1.80;;;0.95;;
34471;SDS011;20710;49.976;19.836;2022-09-09T15:08:27;2.33;;;1.20;;
34471;SDS011;20710;49.976;19.836;2022-09-09T15:14:28;2.08;;;0.95;;
34471;SDS011;20710;49.976;19.836;2022-09-09T15:20:36;1.32;;;0.88;;
34471;SDS011;20710;49.976;19.836;2022-09-09T15:33:19;1.22;;;1.10;;
34471;SDS011;20710;49.976;19.836;2022-09-09T15:39:23;3.10;;;0.80;;
34471;SDS011;20710;49.976;19.836;2022-09-09T15:45:33;1.50;;;1.12;;
34471;SDS011;20710;49.976;19.836;2022-09-09T15:58:14;1.85;;;1.10;;
34471;SDS011;20710;49.976;19.836;2022-09-09T16:10:53;1.72;;;1.15;;
34471;SDS011;20710;49.976;19.836;2022-09-09T16:16:54;1.55;;;1.10;;
34471;SDS011;20710;49.976;19.836;2022-09-09T16:41:45;2.83;;;1.60;;
34471;SDS011;20710;49.976;19.836;2022-09-09T16:47:52;4.05;;;2.20;;
34471;SDS011;20710;49.976;19.836;2022-09-09T16:54:00;3.87;;;1.80;;
34471;SDS011;20710;49.976;19.836;2022-09-09T17:06:34;2.95;;;1.75;;
34471;SDS011;20710;49.976;19.836;2022-09-09T17:25:25;6.22;;;2.80;;
34471;SDS011;20710;49.976;19.836;2022-09-09T17:51:55;12.60;;;6.80;;
34471;SDS011;20710;49.976;19.836;2022-09-09T18:04:30;21.80;;;11.65;;
34471;SDS011;20710;49.976;19.836;2022-09-09T18:10:39;26.52;;;14.03;;
34471;SDS011;20710;49.976;19.836;2022-09-09T18:37:28;21.35;;;11.85;;
34471;SDS011;20710;49.976;19.836;2022-09-09T18:51:09;21.00;;;11.68;;
34471;SDS011;20710;49.976;19.836;2022-09-09T19:04:37;25.80;;;13.58;;
34471;SDS011;20710;49.976;19.836;2022-09-09T19:17:46;19.85;;;10.90;;
34471;SDS011;20710;49.976;19.836;2022-09-09T19:51:17;22.60;;;12.40;;
34471;SDS011;20710;49.976;19.836;2022-09-09T20:04:23;29.75;;;16.77;;
34471;SDS011;20710;49.976;19.836;2022-09-09T20:30:41;19.92;;;11.20;;
34471;SDS011;20710;49.976;19.836;2022-09-09T20:56:47;16.75;;;12.35;;
34471;SDS011;20710;49.976;19.836;2022-09-09T21:02:52;19.50;;;12.13;;
34471;SDS011;20710;49.976;19.836;2022-09-09T21:09:18;16.05;;;12.23;;
34471;SDS011;20710;49.976;19.836;2022-09-09T21:15:33;16.37;;;11.28;;
34471;SDS011;20710;49.976;19.836;2022-09-09T21:27:58;18.52;;;11.38;;
34471;SDS011;20710;49.976;19.836;2022-09-09T21:34:03;25.40;;;14.35;;
34471;SDS011;20710;49.976;19.836;2022-09-09T21:46:44;15.63;;;10.75;;
34471;SDS011;20710;49.976;19.836;2022-09-09T21:59:52;15.08;;;9.70;;
34471;SDS011;20710;49.976;19.836;2022-09-09T22:12:21;17.52;;;11.93;;
34471;SDS011;20710;49.976;19.836;2022-09-09T22:18:30;17.70;;;10.35;;
34471;SDS011;20710;49.976;19.836;2022-09-09T22:31:16;20.52;;;15.20;;
34471;SDS011;20710;49.976;19.836;2022-09-09T22:37:23;19.25;;;13.60;;
34471;SDS011;20710;49.976;19.836;2022-09-09T22:43:25;16.93;;;11.68;;
34471;SDS011;20710;49.976;19.836;2022-09-09T23:31:08;17.75;;;13.38;;
34471;SDS011;20710;49.976;19.836;2022-09-09T23:37:12;22.17;;;15.58;;
34471;SDS011;20710;49.976;19.836;2022-09-09T23:43:19;20.17;;;15.98;;
34471;SDS011;20710;49.976;19.836;2022-09-09T23:49:53;19.82;;;15.75;;
34471;SDS011;20710;49.976;19.836;2022-09-09T23:56:07;24.65;;;15.55;;
